Terminal Aerodrome Forecast
Issued by NWS Jackson, KY

Home | Current Version | Previous Version | Text Only | Print | Product List | Glossary On
Versions: 1 2 3 4 5 6 7 8 9 10 11 12 13 14 15 16 17 18 19 20 21 22
000
FTUS43 KJKL 261149
TAFJKL
TAF
KJKL 261149Z 2612/2712 17004KT P6SM -SHRA OVC050
     FM261400 20007G19KT P6SM VCSH BKN035
     FM261800 20007G19KT P6SM VCTS BKN035CB
     FM270000 20005KT P6SM BKN035=

USA.gov is the U.S. government's official web portal to all federal, state and local government web resources and services.